createdAt,value
2018-01-13T00:02:19.263Z,95431.03
2018-01-13T00:04:48.775Z,95440.12
2018-01-13T00:07:16.235Z,95433.10
2018-01-13T00:09:43.816Z,95439.52
2018-01-13T00:12:11.211Z,95438.39
2018-01-13T00:14:38.633Z,95433.67
2018-01-13T00:17:06.000Z,95433.27
2018-01-13T00:19:33.416Z,95437.66
2018-01-13T00:22:00.806Z,95431.59
2018-01-13T00:24:28.204Z,95441.23
2018-01-13T00:26:55.589Z,95438.19
2018-01-13T00:29:22.989Z,95433.84
2018-01-13T00:31:50.631Z,95437.63
2018-01-13T00:34:18.032Z,95445.77
2018-01-13T00:36:45.453Z,95443.49
2018-01-13T00:39:12.792Z,95445.95
2018-01-13T00:41:40.258Z,95452.94
2018-01-13T00:44:07.621Z,95451.05
2018-01-13T00:46:35.023Z,95454.83
2018-01-13T00:49:02.472Z,95459.19
2018-01-13T00:51:29.847Z,95457.67
2018-01-13T00:53:57.237Z,95460.48
2018-01-13T00:56:24.639Z,95464.28
2018-01-13T00:58:52.020Z,95458.02
2018-01-13T01:01:19.422Z,95461.23
2018-01-13T01:03:46.812Z,95464.65
2018-01-13T01:06:14.276Z,95470.31
2018-01-13T01:08:41.747Z,95471.64
2018-01-13T01:11:09.134Z,95478.84
2018-01-13T01:13:36.497Z,95473.34
2018-01-13T01:16:04.564Z,95469.58
2018-01-13T01:18:31.946Z,95468.80
2018-01-13T01:20:59.420Z,95475.41
2018-01-13T01:23:26.807Z,95468.22
2018-01-13T01:25:54.195Z,95465.95
2018-01-13T01:28:21.574Z,95468.78
2018-01-13T01:30:48.968Z,95466.34
2018-01-13T01:33:16.590Z,95460.46
2018-01-13T01:35:44.051Z,95464.81
2018-01-13T01:38:11.433Z,95466.53
2018-01-13T01:40:38.896Z,95468.24
2018-01-13T01:43:06.300Z,95464.06
2018-01-13T01:45:33.706Z,95468.02
2018-01-13T01:48:01.099Z,95460.45
2018-01-13T01:50:28.599Z,95464.23
2018-01-13T01:52:56.002Z,95462.52
2018-01-13T01:55:23.378Z,95460.27
2018-01-13T01:57:50.757Z,95457.77
2018-01-13T02:00:18.184Z,95461.03
2018-01-13T02:02:45.653Z,95465.72
2018-01-13T02:05:13.051Z,95465.16
2018-01-13T02:07:40.414Z,95466.69
2018-01-13T02:10:07.821Z,95461.74
2018-01-13T02:12:35.181Z,95467.45
2018-01-13T02:15:03.353Z,95465.75
2018-01-13T02:17:30.802Z,95464.03
2018-01-13T02:19:58.214Z,95458.92
2018-01-13T02:22:25.608Z,95462.12
2018-01-13T02:24:53.020Z,95459.48
2018-01-13T02:27:20.536Z,95461.94
2018-01-13T02:29:48.070Z,95459.48
2018-01-13T02:32:15.418Z,95459.86
2018-01-13T02:34:42.828Z,95460.25
2018-01-13T02:37:10.265Z,95455.70
2018-01-13T02:39:37.661Z,95453.06
2018-01-13T02:42:05.122Z,95457.23
2018-01-13T02:44:32.513Z,95453.98
2018-01-13T02:46:59.875Z,95452.48
2018-01-13T02:49:27.289Z,95449.09
2018-01-13T02:51:54.696Z,95453.03
2018-01-13T02:54:22.195Z,95454.34
2018-01-13T02:56:49.557Z,95453.22
2018-01-13T02:59:16.949Z,95451.34
2018-01-13T03:01:45.241Z,95453.25
2018-01-13T03:04:12.695Z,95456.63
2018-01-13T03:06:40.277Z,95458.33
2018-01-13T03:09:07.622Z,95459.84
2018-01-13T03:11:35.093Z,95455.30
2018-01-13T03:14:02.494Z,95450.57
2018-01-13T03:16:29.886Z,95456.03
2018-01-13T03:18:57.256Z,95449.36
2018-01-13T03:21:24.672Z,95452.45
2018-01-13T03:23:52.038Z,95459.23
2018-01-13T03:26:19.404Z,95448.83
2018-01-13T03:28:47.028Z,95456.05
2018-01-13T03:31:14.469Z,95449.73
2018-01-13T03:33:41.838Z,95457.53
2018-01-13T03:36:09.396Z,95455.98
2018-01-13T03:38:36.748Z,95459.00
2018-01-13T03:41:04.117Z,95464.67
2018-01-13T03:43:32.327Z,95460.14
2018-01-13T03:45:59.688Z,95463.55
2018-01-13T03:48:27.137Z,95456.80
2018-01-13T03:50:54.515Z,95465.23
2018-01-13T03:53:21.950Z,95466.37
2018-01-13T03:55:49.357Z,95463.91
2018-01-13T03:58:16.794Z,95464.62
2018-01-13T04:00:44.318Z,95466.72
2018-01-13T04:03:11.708Z,95461.22
2018-01-13T04:05:39.163Z,95461.42
2018-01-13T04:08:06.639Z,95454.05
2018-01-13T04:10:34.002Z,95455.75
2018-01-13T04:13:01.407Z,95453.30
2018-01-13T04:15:28.963Z,95454.80
2018-01-13T04:17:56.404Z,95452.73
2018-01-13T04:20:23.771Z,95451.21
2018-01-13T04:22:51.177Z,95456.88
2018-01-13T04:25:18.556Z,95457.84
2018-01-13T04:27:45.985Z,95450.81
2018-01-13T04:30:13.351Z,95455.16
2018-01-13T04:32:40.708Z,95453.87
2018-01-13T04:35:08.124Z,95455.16
2018-01-13T04:37:35.594Z,95457.61
2018-01-13T04:40:04.154Z,95456.13
2018-01-13T04:42:31.567Z,95457.44
2018-01-13T04:44:59.155Z,95454.20
2018-01-13T04:47:26.486Z,95462.52
2018-01-13T04:49:53.919Z,95462.36
2018-01-13T04:52:21.306Z,95460.11
2018-01-13T04:54:48.681Z,95460.04
2018-01-13T04:57:16.093Z,95459.71
2018-01-13T04:59:43.519Z,95452.33
2018-01-13T05:02:10.898Z,95456.50
2018-01-13T05:04:38.405Z,95455.16
2018-01-13T05:07:05.849Z,95461.03
2018-01-13T05:09:33.205Z,95467.48
2018-01-13T05:12:00.585Z,95470.69
2018-01-13T05:14:28.143Z,95473.05
2018-01-13T05:16:55.563Z,95467.67
2018-01-13T05:19:23.077Z,95470.91
2018-01-13T05:21:50.548Z,95459.37
2018-01-13T05:24:17.910Z,95469.22
2018-01-13T05:26:45.478Z,95462.03
2018-01-13T05:29:12.879Z,95474.75
2018-01-13T05:31:40.230Z,95474.93
2018-01-13T05:34:07.624Z,95479.84
2018-01-13T05:36:34.986Z,95480.02
2018-01-13T05:39:02.382Z,95472.84
2018-01-13T05:41:29.732Z,95475.33
2018-01-13T05:43:57.169Z,95472.95
2018-01-13T05:46:24.578Z,95459.91
2018-01-13T05:48:51.939Z,95478.67
2018-01-13T05:51:19.329Z,95474.12
2018-01-13T05:53:46.675Z,95474.49
2018-01-13T05:56:14.104Z,95472.22
2018-01-13T05:58:41.465Z,95487.98
2018-01-13T06:01:08.938Z,95481.10
2018-01-13T06:03:36.325Z,95478.83
2018-01-13T06:06:03.757Z,95487.91
2018-01-13T06:08:31.136Z,95482.80
2018-01-13T06:10:58.551Z,95475.81
2018-01-13T06:13:25.896Z,95493.02
2018-01-13T06:15:53.309Z,95485.70
2018-01-13T06:18:20.718Z,95489.09
2018-01-13T06:20:48.121Z,95490.04
2018-01-13T06:23:15.642Z,95489.41
2018-01-13T06:25:43.088Z,95482.78
2018-01-13T06:28:10.493Z,95489.66
2018-01-13T06:30:38.082Z,95488.09
2018-01-13T06:33:05.435Z,95488.08
2018-01-13T06:35:32.807Z,95479.58
2018-01-13T06:38:00.202Z,95486.84
2018-01-13T06:40:27.562Z,95490.36
2018-01-13T06:42:54.954Z,95489.63
2018-01-13T06:45:22.299Z,95488.27
2018-01-13T06:47:50.005Z,95487.71
2018-01-13T06:50:17.467Z,95493.75
2018-01-13T06:52:44.946Z,95492.12
2018-01-13T06:55:12.434Z,95496.98
2018-01-13T06:57:39.927Z,95494.52
2018-01-13T07:00:07.302Z,95494.91
2018-01-13T07:02:34.773Z,95497.34
2018-01-13T07:05:02.221Z,95496.20
2018-01-13T07:07:29.596Z,95504.59
2018-01-13T07:09:56.976Z,95491.09
2018-01-13T07:12:24.343Z,95506.79
2018-01-13T07:14:51.727Z,95492.38
2018-01-13T07:17:19.129Z,95503.92
2018-01-13T07:19:46.516Z,95508.86
2018-01-13T07:22:14.015Z,95500.16
2018-01-13T07:24:41.390Z,95493.92
2018-01-13T07:27:08.804Z,95500.37
2018-01-13T07:29:36.266Z,95499.61
2018-01-13T07:32:03.687Z,95505.86
2018-01-13T07:34:31.031Z,95500.35
2018-01-13T07:36:58.559Z,95499.95
2018-01-13T07:39:25.953Z,95501.84
2018-01-13T07:41:53.419Z,95502.80
2018-01-13T07:44:20.801Z,95503.55
2018-01-13T07:46:48.186Z,95498.86
2018-01-13T07:49:15.552Z,95503.16
2018-01-13T07:51:42.989Z,95496.37
2018-01-13T07:54:10.366Z,95502.20
2018-01-13T07:56:37.866Z,95498.83
2018-01-13T07:59:05.318Z,95502.03
2018-01-13T08:01:32.686Z,95501.83
2018-01-13T08:04:00.066Z,95501.46
2018-01-13T08:06:27.421Z,95502.61
2018-01-13T08:08:54.884Z,95495.76
2018-01-13T08:11:22.279Z,95508.62
2018-01-13T08:13:49.674Z,95504.48
2018-01-13T08:16:17.173Z,95505.95
2018-01-13T08:18:44.547Z,95506.72
2018-01-13T08:21:11.900Z,95510.53
2018-01-13T08:23:39.479Z,95524.12
2018-01-13T08:26:06.851Z,95528.83
2018-01-13T08:28:34.246Z,95525.64
2018-01-13T08:31:01.705Z,95529.58
2018-01-13T08:33:29.087Z,95526.77
2018-01-13T08:35:57.542Z,95541.30
2018-01-13T08:38:24.941Z,95535.05
2018-01-13T08:40:52.393Z,95538.86
2018-01-13T08:43:19.906Z,95541.30
2018-01-13T08:45:47.380Z,95542.05
2018-01-13T08:48:14.890Z,95549.09
2018-01-13T08:50:42.331Z,95552.60
2018-01-13T08:53:09.973Z,95552.62
2018-01-13T08:55:37.337Z,95549.25
2018-01-13T08:58:04.816Z,95543.20
2018-01-13T09:00:32.165Z,95545.04
2018-01-13T09:02:59.521Z,95542.99
2018-01-13T09:05:26.914Z,95544.69
2018-01-13T09:07:54.294Z,95539.19
2018-01-13T09:10:21.725Z,95540.19
2018-01-13T09:12:49.224Z,95536.74
2018-01-13T09:15:16.598Z,95536.17
2018-01-13T09:17:44.011Z,95528.76
2018-01-13T09:20:11.408Z,95528.66
2018-01-13T09:22:38.820Z,95530.88
2018-01-13T09:25:06.239Z,95525.58
2018-01-13T09:27:33.688Z,95528.59
2018-01-13T09:30:01.065Z,95530.11
2018-01-13T09:32:28.474Z,95526.88
2018-01-13T09:34:55.861Z,95530.31
2018-01-13T09:37:23.267Z,95528.83
2018-01-13T09:39:50.751Z,95529.22
2018-01-13T09:42:18.229Z,95522.41
2018-01-13T09:44:46.949Z,95520.33
2018-01-13T09:47:14.569Z,95521.61
2018-01-13T09:49:42.036Z,95519.34
2018-01-13T09:52:09.557Z,95511.05
2018-01-13T09:54:37.010Z,95518.56
2018-01-13T09:57:04.361Z,95514.78
2018-01-13T09:59:32.181Z,95517.63
2018-01-13T10:01:59.578Z,95513.06
2018-01-13T10:04:26.978Z,95507.99
2018-01-13T10:09:28.232Z,95506.86
2018-01-13T10:11:55.634Z,95499.86
2018-01-13T10:14:23.226Z,95505.92
2018-01-13T10:16:50.704Z,95499.47
2018-01-13T10:19:18.176Z,95499.09
2018-01-13T10:21:45.643Z,95495.14
2018-01-13T10:24:13.012Z,95494.59
2018-01-13T10:26:40.442Z,95491.96
2018-01-13T10:29:07.832Z,95490.23
2018-01-13T10:31:35.205Z,95486.64
2018-01-13T10:34:02.593Z,95486.03
2018-01-13T10:36:29.935Z,95481.36
2018-01-13T10:38:57.325Z,95476.06
2018-01-13T10:41:24.729Z,95474.72
2018-01-13T10:43:52.062Z,95469.92
2018-01-13T10:46:19.622Z,95471.21
2018-01-13T10:48:47.049Z,95476.73
2018-01-13T10:51:14.516Z,95469.16
2018-01-13T10:53:41.898Z,95473.87
2018-01-13T10:56:09.344Z,95472.18
2018-01-13T10:58:36.725Z,95469.74
2018-01-13T11:01:04.125Z,95474.47
2018-01-13T11:03:31.547Z,95467.66
2018-01-13T11:05:58.900Z,95466.34
2018-01-13T11:08:26.310Z,95473.54
2018-01-13T11:10:53.666Z,95472.97
2018-01-13T11:13:21.088Z,95475.45
2018-01-13T11:15:48.523Z,95469.59
2018-01-13T11:18:15.935Z,95469.95
2018-01-13T11:20:43.342Z,95470.89
2018-01-13T11:23:10.678Z,95469.78
2018-01-13T11:25:38.059Z,95472.39
2018-01-13T11:28:05.450Z,95472.36
2018-01-13T11:30:32.821Z,95471.84
2018-01-13T11:33:00.205Z,95467.10
2018-01-13T11:35:27.637Z,95477.52
2018-01-13T11:37:54.999Z,95478.67
2018-01-13T11:40:22.330Z,95475.14
2018-01-13T11:42:49.728Z,95466.53
2018-01-13T11:45:17.090Z,95467.72
2018-01-13T11:47:44.458Z,95465.22
2018-01-13T11:50:11.915Z,95464.11
2018-01-13T11:52:39.313Z,95466.76
2018-01-13T11:55:06.749Z,95469.81
2018-01-13T11:57:34.256Z,95467.88
2018-01-13T12:00:01.633Z,95468.63
2018-01-13T12:02:29.056Z,95467.30
2018-01-13T12:04:56.484Z,95465.48
2018-01-13T12:07:23.863Z,95469.08
2018-01-13T12:09:51.282Z,95468.64
2018-01-13T12:12:18.687Z,95462.81
2018-01-13T12:14:46.117Z,95463.17
2018-01-13T12:17:13.517Z,95466.02
2018-01-13T12:19:40.949Z,95461.49
2018-01-13T12:22:08.406Z,95465.83
2018-01-13T12:24:35.842Z,95466.95
2018-01-13T12:27:03.250Z,95462.28
2018-01-13T12:29:30.790Z,95466.40
2018-01-13T12:31:58.206Z,95446.36
2018-01-13T12:34:25.606Z,95455.03
2018-01-13T12:36:53.127Z,95455.09
2018-01-13T12:39:20.559Z,95468.11
2018-01-13T12:41:47.938Z,95458.42
2018-01-13T12:44:15.432Z,95465.42
2018-01-13T12:46:42.952Z,95469.98
2018-01-13T12:49:10.539Z,95465.42
2018-01-13T12:51:37.966Z,95464.48
2018-01-13T12:54:05.365Z,95464.91
2018-01-13T12:56:32.850Z,95470.92
2018-01-13T12:59:00.230Z,95471.30
2018-01-13T13:01:27.749Z,95459.61
2018-01-13T13:03:55.138Z,95470.19
2018-01-13T13:06:22.550Z,95474.16
2018-01-13T13:08:49.950Z,95464.66
2018-01-13T13:11:17.358Z,95466.76
2018-01-13T13:13:44.763Z,95470.31
2018-01-13T13:16:12.624Z,95470.53
2018-01-13T13:18:40.086Z,95468.77
2018-01-13T13:21:07.529Z,95474.59
2018-01-13T13:23:34.905Z,95474.97
2018-01-13T13:26:02.314Z,95474.20
2018-01-13T13:28:29.720Z,95466.80
2018-01-13T13:30:57.177Z,95475.13
2018-01-13T13:33:24.577Z,95472.50
2018-01-13T13:35:52.007Z,95472.86
2018-01-13T13:38:19.528Z,95479.67
2018-01-13T13:40:46.908Z,95484.03
2018-01-13T13:43:14.325Z,95476.26
2018-01-13T13:45:41.731Z,95486.16
2018-01-13T13:48:09.247Z,95483.27
2018-01-13T13:50:36.755Z,95483.28
2018-01-13T13:53:04.161Z,95484.81
2018-01-13T13:55:31.548Z,95492.89
2018-01-13T13:57:59.020Z,95490.26
2018-01-13T14:00:26.458Z,95493.22
2018-01-13T14:02:53.880Z,95490.77
2018-01-13T14:05:21.303Z,95499.43
2018-01-13T14:07:48.691Z,95497.79
2018-01-13T14:10:16.110Z,95504.73
2018-01-13T14:12:43.555Z,95507.76
2018-01-13T14:15:11.021Z,95510.63
2018-01-13T14:17:38.432Z,95517.38
2018-01-13T14:20:05.830Z,95514.95
2018-01-13T14:22:33.267Z,95514.55
2018-01-13T14:25:00.643Z,95519.27
2018-01-13T14:27:28.197Z,95519.81
2018-01-13T14:29:55.559Z,95525.91
2018-01-13T14:32:23.021Z,95522.30
2018-01-13T14:34:50.384Z,95523.95
2018-01-13T14:37:17.720Z,95529.01
2018-01-13T14:39:45.170Z,95519.56
2018-01-13T14:42:12.535Z,95522.04
2018-01-13T14:44:40.125Z,95529.40
2018-01-13T14:47:07.586Z,95531.16
2018-01-13T14:49:34.965Z,95526.17
2018-01-13T14:52:02.423Z,95526.02
2018-01-13T14:54:29.775Z,95530.15
2018-01-13T14:56:57.394Z,95533.19
2018-01-13T14:59:24.953Z,95531.83
2018-01-13T15:04:25.669Z,95531.12
2018-01-13T15:06:53.084Z,95536.78
2018-01-13T15:09:20.591Z,95541.31
2018-01-13T15:11:48.122Z,95531.01
2018-01-13T15:14:15.761Z,95532.22
2018-01-13T15:16:43.179Z,95536.37
2018-01-13T15:19:11.489Z,95535.97
2018-01-13T15:21:38.950Z,95536.50
2018-01-13T15:24:06.325Z,95532.92
2018-01-13T15:26:33.747Z,95532.55
2018-01-13T15:29:01.158Z,95537.88
2018-01-13T15:31:28.507Z,95533.06
2018-01-13T15:33:55.928Z,95535.58
2018-01-13T15:36:23.347Z,95531.01
2018-01-13T15:38:50.776Z,95542.80
2018-01-13T15:41:18.233Z,95545.56
2018-01-13T15:43:45.682Z,95538.56
2018-01-13T15:46:13.105Z,95548.77
2018-01-13T15:48:40.574Z,95549.13
2018-01-13T15:51:07.947Z,95545.53
2018-01-13T15:53:35.350Z,95551.16
2018-01-13T15:56:02.752Z,95550.86
2018-01-13T15:58:30.206Z,95542.69
2018-01-13T16:00:57.650Z,95553.31
2018-01-13T16:03:25.061Z,95558.02
2018-01-13T16:05:52.475Z,95551.77
2018-01-13T16:08:19.841Z,95561.05
2018-01-13T16:10:47.296Z,95561.02
2018-01-13T16:13:14.727Z,95558.34
2018-01-13T16:15:42.209Z,95562.80
2018-01-13T16:18:09.728Z,95560.20
2018-01-13T16:20:37.140Z,95557.72
2018-01-13T16:23:04.546Z,95559.98
2018-01-13T16:25:31.919Z,95567.23
2018-01-13T16:27:59.343Z,95570.98
2018-01-13T16:30:27.422Z,95568.13
2018-01-13T16:32:54.794Z,95570.45
2018-01-13T16:35:22.225Z,95561.95
2018-01-13T16:37:49.562Z,95577.60
2018-01-13T16:40:17.926Z,95573.23
2018-01-13T16:42:45.307Z,95571.57
2018-01-13T16:45:12.674Z,95572.50
2018-01-13T16:47:40.128Z,95583.27
2018-01-13T16:50:07.482Z,95580.17
2018-01-13T16:52:34.886Z,95581.50
2018-01-13T16:55:02.305Z,95580.03
2018-01-13T16:57:29.739Z,95569.53
2018-01-13T16:59:57.342Z,95581.72
2018-01-13T17:02:24.747Z,95583.16
2018-01-13T17:04:52.144Z,95574.74
2018-01-13T17:07:19.543Z,95580.72
2018-01-13T17:09:46.912Z,95583.77
2018-01-13T17:12:14.309Z,95587.73
2018-01-13T17:14:41.714Z,95589.02
2018-01-13T17:17:09.226Z,95592.45
2018-01-13T17:19:36.566Z,95585.41
2018-01-13T17:22:03.977Z,95585.47
2018-01-13T17:24:31.334Z,95585.23
2018-01-13T17:26:58.725Z,95581.05
2018-01-13T17:29:26.126Z,95584.84
2018-01-13T17:31:53.630Z,95584.25
2018-01-13T17:34:21.116Z,95581.27
2018-01-13T17:36:48.577Z,95580.89
2018-01-13T17:39:15.922Z,95582.23
2018-01-13T17:41:43.330Z,95582.37
2018-01-13T17:44:10.710Z,95585.26
2018-01-13T17:46:38.098Z,95585.50
2018-01-13T17:49:05.525Z,95597.34
2018-01-13T17:51:33.143Z,95589.77
2018-01-13T17:54:00.632Z,95582.16
2018-01-13T17:56:28.139Z,95579.97
2018-01-13T17:58:55.525Z,95587.09
2018-01-13T18:01:22.863Z,95569.41
2018-01-13T18:03:50.215Z,95593.53
2018-01-13T18:06:17.598Z,95597.77
2018-01-13T18:08:45.026Z,95595.95
2018-01-13T18:11:12.473Z,95595.74
2018-01-13T18:13:39.854Z,95591.77
2018-01-13T18:16:07.269Z,95597.41
2018-01-13T18:18:34.697Z,95591.31
2018-01-13T18:21:02.052Z,95596.64
2018-01-13T18:23:29.433Z,95593.02
2018-01-13T18:25:56.833Z,95595.70
2018-01-13T18:28:24.210Z,95593.06
2018-01-13T18:30:51.566Z,95596.98
2018-01-13T18:33:19.036Z,95594.30
2018-01-13T18:35:46.710Z,95596.59
2018-01-13T18:38:14.079Z,95606.28
2018-01-13T18:40:41.594Z,95605.09
2018-01-13T18:43:08.962Z,95603.20
2018-01-13T18:45:36.361Z,95598.47
2018-01-13T18:48:03.735Z,95602.79
2018-01-13T18:50:31.137Z,95605.89
2018-01-13T18:52:58.600Z,95606.11
2018-01-13T18:55:26.605Z,95608.09
2018-01-13T18:57:54.367Z,95610.87
2018-01-13T19:00:21.874Z,95617.29
2018-01-13T19:02:49.275Z,95612.92
2018-01-13T19:05:16.694Z,95610.73
2018-01-13T19:07:44.050Z,95609.53
2018-01-13T19:10:11.441Z,95612.80
2018-01-13T19:12:38.837Z,95604.06
2018-01-13T19:15:06.280Z,95608.05
2018-01-13T19:17:33.737Z,95612.11
2018-01-13T19:20:01.324Z,95612.32
2018-01-13T19:22:28.715Z,95610.64
2018-01-13T19:24:56.341Z,95616.30
2018-01-13T19:27:23.746Z,95617.80
2018-01-13T19:29:51.115Z,95620.02
2018-01-13T19:32:18.642Z,95625.37
2018-01-13T19:34:46.138Z,95617.75
2018-01-13T19:37:13.526Z,95621.06
2018-01-13T19:39:41.007Z,95619.20
2018-01-13T19:42:08.402Z,95620.19
2018-01-13T19:47:09.128Z,95632.48
2018-01-13T19:49:36.493Z,95626.45
2018-01-13T19:52:03.889Z,95636.27
2018-01-13T19:54:31.241Z,95637.30
2018-01-13T19:56:58.629Z,95627.87
2018-01-13T19:59:26.013Z,95632.55
2018-01-13T20:01:53.398Z,95631.30
2018-01-13T20:04:20.819Z,95630.29
2018-01-13T20:06:48.226Z,95637.55
2018-01-13T20:09:15.762Z,95639.80
2018-01-13T20:11:43.170Z,95640.91
2018-01-13T20:14:10.621Z,95643.70
2018-01-13T20:16:38.023Z,95645.72
2018-01-13T20:19:05.464Z,95642.72
2018-01-13T20:21:32.856Z,95648.77
2018-01-13T20:24:00.306Z,95639.97
2018-01-13T20:26:27.859Z,95650.14
2018-01-13T20:28:55.222Z,95649.70
2018-01-13T20:31:22.638Z,95641.28
2018-01-13T20:33:49.995Z,95639.14
2018-01-13T20:36:17.393Z,95642.17
2018-01-13T20:38:44.814Z,95638.02
2018-01-13T20:41:12.177Z,95645.77
2018-01-13T20:43:39.643Z,95643.33
2018-01-13T20:46:06.999Z,95654.02
2018-01-13T20:48:34.354Z,95647.78
2018-01-13T20:51:01.763Z,95651.96
2018-01-13T20:53:29.130Z,95658.39
2018-01-13T20:55:56.594Z,95658.36
2018-01-13T20:58:24.023Z,95656.33
2018-01-13T21:00:51.370Z,95666.09
2018-01-13T21:03:18.796Z,95662.13
2018-01-13T21:05:46.148Z,95662.11
2018-01-13T21:08:13.559Z,95667.55
2018-01-13T21:10:41.346Z,95665.52
2018-01-13T21:13:08.742Z,95667.00
2018-01-13T21:15:36.218Z,95680.74
2018-01-13T21:18:03.580Z,95672.00
2018-01-13T21:20:30.992Z,95674.50
2018-01-13T21:22:58.384Z,95677.86
2018-01-13T21:25:25.818Z,95672.14
2018-01-13T21:27:53.322Z,95673.48
2018-01-13T21:30:20.687Z,95672.36
2018-01-13T21:32:48.151Z,95672.47
2018-01-13T21:35:15.563Z,95661.75
2018-01-13T21:37:42.961Z,95671.45
2018-01-13T21:40:10.324Z,95667.66
2018-01-13T21:42:37.927Z,95663.86
2018-01-13T21:45:05.381Z,95664.83
2018-01-13T21:47:32.717Z,95661.78
2018-01-13T21:50:00.063Z,95665.21
2018-01-13T21:52:27.626Z,95664.88
2018-01-13T21:54:54.966Z,95665.05
2018-01-13T21:57:22.366Z,95665.52
2018-01-13T21:59:49.757Z,95662.36
2018-01-13T22:02:17.117Z,95666.12
2018-01-13T22:04:44.526Z,95660.95
2018-01-13T22:07:11.904Z,95657.43
2018-01-13T22:09:39.337Z,95653.86
2018-01-13T22:12:06.782Z,95657.79
2018-01-13T22:14:34.159Z,95652.34
2018-01-13T22:17:01.634Z,95659.41
2018-01-13T22:19:29.041Z,95653.45
2018-01-13T22:21:56.474Z,95659.88
2018-01-13T22:24:24.061Z,95660.73
2018-01-13T22:26:51.480Z,95656.28
2018-01-13T22:29:18.856Z,95658.56
2018-01-13T22:31:46.264Z,95654.00
2018-01-13T22:34:13.631Z,95655.67
2018-01-13T22:36:41.025Z,95654.48
2018-01-13T22:39:08.440Z,95651.69
2018-01-13T22:41:35.821Z,95648.55
2018-01-13T22:44:03.227Z,95648.09
2018-01-13T22:46:30.587Z,95650.04
2018-01-13T22:48:57.954Z,95653.03
2018-01-13T22:51:25.340Z,95651.20
2018-01-13T22:53:52.735Z,95645.89
2018-01-13T22:56:20.083Z,95649.22
2018-01-13T22:58:47.476Z,95646.41
2018-01-13T23:01:14.837Z,95643.72
2018-01-13T23:03:42.189Z,95640.28
2018-01-13T23:06:09.604Z,95636.41
2018-01-13T23:08:37.057Z,95638.88
2018-01-13T23:11:04.425Z,95640.78
2018-01-13T23:13:31.819Z,95637.56
2018-01-13T23:15:59.218Z,95639.02
2018-01-13T23:18:26.705Z,95636.66
2018-01-13T23:20:54.067Z,95635.28
2018-01-13T23:23:21.429Z,95643.94
2018-01-13T23:25:48.826Z,95645.86
2018-01-13T23:28:16.290Z,95635.20
2018-01-13T23:30:43.727Z,95640.94
2018-01-13T23:33:11.311Z,95636.33
2018-01-13T23:35:38.955Z,95642.40
2018-01-13T23:38:06.438Z,95639.19
2018-01-13T23:40:33.902Z,95637.45
2018-01-13T23:43:01.406Z,95641.41
2018-01-13T23:45:28.862Z,95640.06
2018-01-13T23:47:56.285Z,95641.05
2018-01-13T23:50:23.819Z,95641.66
2018-01-13T23:52:51.186Z,95636.55
2018-01-13T23:55:18.589Z,95635.28
2018-01-13T23:57:46.051Z,95643.94
